Time;durP1;ratioP1;P1;durP2;ratioP2;P2;SDS_P1;SDS_P2;PMS_P1;PMS_P2;Temp;Humidity;BMP_temperature;BMP_pressure;BME280_temperature;BME280_humidity;BME280_pressure;Samples;Min_cycle;Max_cycle;Signal;HPM_P1;HPM_P2
2022/08/01 00:03:18;;;;;;;;;;;26.80;37.70;;;;;;8368654;28;19948;-44
2022/08/01 00:07:19;;;;;;;;;;;26.80;37.70;;;;;;8368017;28;19932;-45
2022/08/01 00:11:19;;;;;;;;;;;26.80;37.70;;;;;;8367425;28;19948;-44
2022/08/01 00:15:20;;;;;;;;;;;26.80;37.70;;;;;;8368096;28;19924;-44
2022/08/01 00:19:20;;;;;;;;;;;26.80;37.70;;;;;;8367837;28;19920;-44
2022/08/01 00:23:21;;;;;;;;;;;26.80;37.70;;;;;;8367401;28;19917;-44
2022/08/01 00:27:21;;;;;;;;;;;26.80;37.70;;;;;;8367371;28;20429;-46
2022/08/01 00:31:21;;;;;;;;;;;26.80;37.70;;;;;;8367366;28;20294;-46
2022/08/01 00:35:22;;;;;;;;;;;26.80;37.70;;;;;;8366886;28;19917;-44
2022/08/01 00:39:22;;;;;;;;;;;26.80;37.70;;;;;;8367167;28;19925;-44
2022/08/01 00:43:23;;;;;;;;;;;26.80;37.70;;;;;;8367361;28;19917;-44
2022/08/01 00:47:23;;;;;;;;;;;26.80;37.80;;;;;;8366305;28;19925;-45
2022/08/01 00:51:24;;;;;;;;;;;26.80;37.80;;;;;;8366658;28;19937;-45
2022/08/01 00:55:26;;;;;;;;;;;26.80;37.80;;;;;;8366654;28;20004;-44
2022/08/01 00:59:26;;;;;;;;;;;26.70;37.70;;;;;;8365985;28;19985;-44
2022/08/01 01:03:27;;;;;;;;;;;26.70;37.70;;;;;;8366565;28;20386;-45
2022/08/01 01:07:34;;;;;;;;;;;26.70;37.80;;;;;;8365086;28;19924;-45
2022/08/01 01:11:46;;;;;;;;;;;26.80;37.80;;;;;;8364952;28;20296;-45
2022/08/01 01:15:49;;;;;;;;;;;26.70;37.80;;;;;;8366081;28;20027;-44
2022/08/01 01:19:54;;;;;;;;;;;26.70;37.80;;;;;;8365543;28;19916;-44
2022/08/01 01:24:03;;;;;;;;;;;26.70;37.80;;;;;;8365847;28;19959;-44
2022/08/01 01:28:26;;;;;;;;;;;26.70;37.80;;;;;;8365613;28;19979;-44
2022/08/01 01:32:33;;;;;;;;;;;26.70;37.90;;;;;;8364983;28;20301;-43
2022/08/01 01:36:35;;;;;;;;;;;26.70;37.80;;;;;;8365444;28;20296;-44
2022/08/01 01:40:36;;;;;;;;;;;26.70;37.90;;;;;;8374465;28;19921;-43
2022/08/01 01:44:37;;;;;;;;;;;26.60;37.80;;;;;;8397639;28;19967;-44
2022/08/01 01:48:38;;;;;;;;;;;26.70;37.90;;;;;;8398109;28;19917;-44
2022/08/01 01:52:40;;;;;;;;;;;26.70;37.90;;;;;;8397923;28;19970;-43
2022/08/01 01:56:48;;;;;;;;;;;26.60;37.80;;;;;;8397221;28;20381;-44
2022/08/01 02:00:50;;;;;;;;;;;26.60;37.80;;;;;;8397803;28;19971;-43
2022/08/01 02:04:51;;;;;;;;;;;26.60;37.90;;;;;;8397119;28;19920;-43
2022/08/01 02:08:53;;;;;;;;;;;26.60;37.90;;;;;;8397646;28;19913;-43
2022/08/01 02:12:54;;;;;;;;;;;26.60;37.90;;;;;;8397062;28;19916;-44
2022/08/01 02:16:57;;;;;;;;;;;26.60;38.40;;;;;;8396515;28;20289;-43
2022/08/01 02:20:58;;;;;;;;;;;26.60;37.90;;;;;;8395976;28;19939;-43
2022/08/01 02:25:01;;;;;;;;;;;26.50;37.90;;;;;;8396800;28;19963;-43
2022/08/01 02:29:05;;;;;;;;;;;26.60;38.00;;;;;;8396784;28;20015;-43
2022/08/01 02:33:09;;;;;;;;;;;26.60;38.00;;;;;;8396707;28;20014;-43
2022/08/01 02:37:09;;;;;;;;;;;26.50;37.90;;;;;;8396871;28;19916;-43
2022/08/01 02:41:12;;;;;;;;;;;26.50;37.90;;;;;;8396181;28;20023;-44
2022/08/01 02:45:13;;;;;;;;;;;26.50;38.00;;;;;;8396757;28;19932;-43
2022/08/01 02:49:15;;;;;;;;;;;26.50;38.00;;;;;;8396830;28;19919;-43
2022/08/01 02:53:17;;;;;;;;;;;26.50;38.00;;;;;;8395951;28;19920;-43
2022/08/01 02:57:19;;;;;;;;;;;26.50;38.50;;;;;;8396465;28;20349;-45
2022/08/01 03:01:20;;;;;;;;;;;26.50;38.00;;;;;;8396352;28;19923;-43
2022/08/01 03:05:22;;;;;;;;;;;26.50;38.00;;;;;;8395871;28;19940;-44
2022/08/01 03:09:22;;;;;;;;;;;26.50;38.00;;;;;;8396528;28;20313;-45
2022/08/01 03:13:24;;;;;;;;;;;26.50;38.10;;;;;;8396158;28;19955;-45
2022/08/01 03:17:26;;;;;;;;;;;26.50;38.00;;;;;;8395697;28;19917;-45
2022/08/01 03:21:27;;;;;;;;;;;26.50;38.00;;;;;;8395865;28;20403;-45
2022/08/01 03:25:28;;;;;;;;;;;26.50;38.10;;;;;;8395898;28;19921;-45
2022/08/01 03:29:29;;;;;;;;;;;26.50;38.10;;;;;;8395484;28;19996;-45
2022/08/01 03:33:30;;;;;;;;;;;26.40;38.00;;;;;;8398166;28;20293;-45
2022/08/01 03:37:47;;;;;;;;;;;26.40;38.00;;;;;;8402065;28;20296;-45
2022/08/01 03:41:51;;;;;;;;;;;26.40;38.10;;;;;;8401613;28;20289;-44
2022/08/01 03:45:53;;;;;;;;;;;26.40;38.10;;;;;;8401456;28;19931;-45
2022/08/01 03:49:54;;;;;;;;;;;26.40;38.10;;;;;;8401617;28;20277;-45
2022/08/01 03:53:55;;;;;;;;;;;26.40;38.10;;;;;;8401550;28;19963;-45
2022/08/01 03:57:56;;;;;;;;;;;26.40;38.10;;;;;;8401444;28;20289;-44
2022/08/01 04:01:57;;;;;;;;;;;26.40;38.10;;;;;;8390373;28;19920;-45
2022/08/01 04:05:58;;;;;;;;;;;26.40;38.20;;;;;;8372456;28;19925;-45
2022/08/01 04:09:58;;;;;;;;;;;26.40;38.20;;;;;;8401633;28;20046;-45
2022/08/01 04:13:59;;;;;;;;;;;26.40;38.20;;;;;;8400605;28;19920;-45
2022/08/01 04:17:59;;;;;;;;;;;26.40;38.20;;;;;;8400692;28;19987;-46
2022/08/01 04:22:00;;;;;;;;;;;26.30;38.10;;;;;;8400766;28;19947;-45
2022/08/01 04:26:03;;;;;;;;;;;26.30;38.10;;;;;;8400225;28;19964;-44
2022/08/01 04:30:05;;;;;;;;;;;26.30;38.10;;;;;;8401185;28;19920;-45
2022/08/01 04:34:06;;;;;;;;;;;26.30;38.10;;;;;;8400303;28;19970;-46
2022/08/01 04:38:08;;;;;;;;;;;26.30;38.10;;;;;;8399914;28;19916;-44
2022/08/01 04:42:10;;;;;;;;;;;26.30;38.10;;;;;;8400263;28;20452;-43
2022/08/01 04:46:11;;;;;;;;;;;26.30;38.10;;;;;;8399100;28;19924;-43
2022/08/01 04:50:12;;;;;;;;;;;26.30;38.20;;;;;;8399786;28;20312;-45
2022/08/01 04:54:12;;;;;;;;;;;26.30;38.20;;;;;;8399979;28;19917;-44
2022/08/01 04:58:13;;;;;;;;;;;26.30;38.20;;;;;;8399841;28;20388;-45
2022/08/01 05:02:15;;;;;;;;;;;26.30;38.20;;;;;;8398818;28;19977;-45
2022/08/01 05:06:16;;;;;;;;;;;26.30;38.20;;;;;;8399229;28;19933;-45
2022/08/01 05:10:16;;;;;;;;;;;26.20;38.10;;;;;;8399574;28;19976;-45
2022/08/01 05:14:17;;;;;;;;;;;26.30;38.20;;;;;;8398670;28;19967;-45
2022/08/01 05:18:17;;;;;;;;;;;26.20;38.10;;;;;;8399003;28;19964;-45
2022/08/01 05:22:18;;;;;;;;;;;26.20;38.10;;;;;;8398697;28;19919;-45
2022/08/01 05:26:18;;;;;;;;;;;26.20;38.10;;;;;;8398109;28;19955;-45
2022/08/01 05:30:19;;;;;;;;;;;26.20;38.20;;;;;;8398816;28;20281;-45
2022/08/01 05:34:19;;;;;;;;;;;26.30;38.20;;;;;;8398218;28;20011;-44
2022/08/01 05:38:20;;;;;;;;;;;26.20;38.20;;;;;;8397963;28;20264;-45
2022/08/01 05:42:20;;;;;;;;;;;26.20;38.20;;;;;;8398130;28;19969;-45
2022/08/01 05:46:21;;;;;;;;;;;26.20;38.20;;;;;;8397773;28;19928;-44
2022/08/01 05:50:21;;;;;;;;;;;26.20;38.20;;;;;;8397804;28;19922;-44
2022/08/01 05:54:22;;;;;;;;;;;26.20;38.20;;;;;;8397716;28;20441;-45
2022/08/01 05:58:22;;;;;;;;;;;26.20;38.20;;;;;;8397513;28;19913;-45
2022/08/01 06:02:23;;;;;;;;;;;26.20;38.20;;;;;;8396752;28;20385;-45
2022/08/01 06:06:23;;;;;;;;;;;26.20;38.20;;;;;;8397496;28;19920;-44
2022/08/01 06:10:24;;;;;;;;;;;26.20;38.20;;;;;;8397392;28;19963;-44
2022/08/01 06:14:24;;;;;;;;;;;26.20;38.20;;;;;;8396785;28;20369;-44
2022/08/01 06:18:25;;;;;;;;;;;26.20;38.20;;;;;;8397046;28;19916;-41
2022/08/01 06:22:25;;;;;;;;;;;26.20;38.20;;;;;;8397093;28;19916;-43
2022/08/01 06:26:26;;;;;;;;;;;26.20;38.20;;;;;;8396085;28;19932;-45
2022/08/01 06:30:26;;;;;;;;;;;26.20;38.20;;;;;;8397091;28;19923;-42
2022/08/01 06:34:26;;;;;;;;;;;26.20;38.20;;;;;;8396839;28;20009;-44
2022/08/01 06:38:27;;;;;;;;;;;26.20;38.20;;;;;;8396302;28;19924;-44
2022/08/01 06:42:27;;;;;;;;;;;26.20;38.20;;;;;;8396636;28;19919;-43
2022/08/01 06:46:29;;;;;;;;;;;26.20;38.20;;;;;;8396651;28;20292;-44
2022/08/01 06:50:29;;;;;;;;;;;26.20;38.20;;;;;;8395904;28;19916;-44
2022/08/01 06:54:29;;;;;;;;;;;26.20;38.20;;;;;;8396541;28;19939;-43
2022/08/01 06:58:30;;;;;;;;;;;26.20;38.10;;;;;;8396434;28;20411;-43
2022/08/01 07:02:30;;;;;;;;;;;26.20;38.10;;;;;;8396141;28;19924;-45
2022/08/01 07:06:31;;;;;;;;;;;26.20;38.10;;;;;;8396215;28;19920;-43
2022/08/01 07:10:31;;;;;;;;;;;26.20;38.10;;;;;;8369572;28;19916;-42
2022/08/01 07:14:32;;;;;;;;;;;26.20;38.10;;;;;;8369226;28;19920;-44
2022/08/01 07:18:32;;;;;;;;;;;26.20;38.10;;;;;;8369420;28;19924;-44
2022/08/01 07:22:33;;;;;;;;;;;26.20;38.00;;;;;;8369349;28;20376;-44
2022/08/01 07:26:33;;;;;;;;;;;26.20;38.00;;;;;;8369064;28;20358;-43
2022/08/01 07:30:34;;;;;;;;;;;26.20;38.10;;;;;;8369359;28;19940;-43
2022/08/01 07:34:34;;;;;;;;;;;26.20;38.00;;;;;;8369117;28;19916;-44
2022/08/01 07:38:35;;;;;;;;;;;26.20;38.00;;;;;;8368322;28;19921;-44
2022/08/01 07:42:35;;;;;;;;;;;26.20;38.10;;;;;;8368873;28;20023;-43
2022/08/01 07:46:36;;;;;;;;;;;26.20;38.10;;;;;;8368993;28;19928;-46
2022/08/01 07:50:36;;;;;;;;;;;26.20;38.10;;;;;;8368095;28;19917;-46
2022/08/01 07:54:37;;;;;;;;;;;26.20;38.10;;;;;;8368608;28;20289;-44
2022/08/01 07:58:37;;;;;;;;;;;26.20;38.10;;;;;;8368422;28;19948;-45
2022/08/01 08:02:38;;;;;;;;;;;26.20;38.10;;;;;;8368422;28;19917;-44
2022/08/01 08:06:38;;;;;;;;;;;26.30;38.20;;;;;;8368338;28;20408;-44
2022/08/01 08:10:39;;;;;;;;;;;26.30;38.20;;;;;;8367924;28;20321;-44
2022/08/01 08:14:39;;;;;;;;;;;26.30;38.20;;;;;;8367542;28;19928;-43
2022/08/01 08:18:40;;;;;;;;;;;26.30;38.20;;;;;;8366956;28;19963;-44
2022/08/01 08:22:40;;;;;;;;;;;26.30;38.10;;;;;;8367691;28;20390;-43
2022/08/01 08:26:41;;;;;;;;;;;26.30;38.20;;;;;;8367004;28;19924;-45
2022/08/01 08:30:41;;;;;;;;;;;26.40;38.20;;;;;;8367433;28;19952;-43
2022/08/01 08:34:42;;;;;;;;;;;26.40;38.20;;;;;;8366920;28;19913;-41
2022/08/01 08:38:42;;;;;;;;;;;26.40;38.20;;;;;;8367079;28;20362;-44
2022/08/01 08:42:44;;;;;;;;;;;26.40;38.20;;;;;;8367039;28;19963;-45
2022/08/01 08:46:45;;;;;;;;;;;26.40;38.20;;;;;;8366656;28;19924;-45
2022/08/01 08:50:46;;;;;;;;;;;26.50;38.20;;;;;;8366576;28;20096;-43
2022/08/01 08:54:47;;;;;;;;;;;26.50;38.20;;;;;;8366833;28;20035;-44
2022/08/01 08:58:48;;;;;;;;;;;26.50;38.20;;;;;;8365978;28;19913;-45
2022/08/01 09:02:49;;;;;;;;;;;26.50;38.20;;;;;;8366526;28;19935;-44
2022/08/01 09:06:49;;;;;;;;;;;26.50;38.80;;;;;;8366415;28;19924;-43
2022/08/01 09:10:50;;;;;;;;;;;26.50;38.20;;;;;;8365625;28;19927;-46
2022/08/01 09:14:53;;;;;;;;;;;26.50;38.20;;;;;;8366321;28;19921;-43
2022/08/01 09:18:53;;;;;;;;;;;26.50;38.10;;;;;;8365909;28;20324;-44
2022/08/01 09:22:53;;;;;;;;;;;26.60;38.20;;;;;;8365253;28;19917;-43
2022/08/01 09:26:54;;;;;;;;;;;26.60;38.20;;;;;;8365575;28;19925;-44
2022/08/01 09:30:58;;;;;;;;;;;26.60;38.20;;;;;;8365148;28;19924;-45
2022/08/01 09:35:18;;;;;;;;;;;26.60;38.20;;;;;;8364856;28;19917;-45
2022/08/01 09:39:19;;;;;;;;;;;26.60;38.10;;;;;;8365068;28;19923;-45
2022/08/01 09:43:21;;;;;;;;;;;26.70;38.20;;;;;;8365207;28;19924;-45
2022/08/01 09:47:21;;;;;;;;;;;26.70;38.20;;;;;;8364734;28;19936;-43
2022/08/01 09:51:38;;;;;;;;;;;26.70;38.10;;;;;;8364771;28;19940;-43
2022/08/01 09:55:39;;;;;;;;;;;26.70;38.10;;;;;;8365014;28;19917;-44
2022/08/01 09:59:42;;;;;;;;;;;26.70;38.10;;;;;;8364098;28;19959;-43
2022/08/01 10:03:42;;;;;;;;;;;26.80;38.20;;;;;;8364413;28;19924;-44
2022/08/01 10:07:56;;;;;;;;;;;26.80;38.10;;;;;;8363990;28;19931;-42
2022/08/01 10:11:58;;;;;;;;;;;26.80;38.10;;;;;;8331574;28;19928;-44
2022/08/01 10:16:00;;;;;;;;;;;26.80;38.10;;;;;;8356702;28;19921;-44
2022/08/01 10:20:02;;;;;;;;;;;26.90;38.10;;;;;;8363544;28;20377;-44
2022/08/01 10:24:04;;;;;;;;;;;26.90;38.00;;;;;;8363828;28;19917;-44
2022/08/01 10:28:09;;;;;;;;;;;26.90;38.00;;;;;;8363868;28;19921;-44
2022/08/01 10:32:09;;;;;;;;;;;26.90;38.00;;;;;;8363377;28;19924;-44
2022/08/01 10:36:10;;;;;;;;;;;26.90;37.90;;;;;;8363840;28;19956;-44
2022/08/01 10:40:11;;;;;;;;;;;27.00;38.00;;;;;;8363491;28;19917;-44
2022/08/01 10:44:11;;;;;;;;;;;27.00;38.60;;;;;;8362155;28;19917;-44
2022/08/01 10:48:15;;;;;;;;;;;27.00;37.90;;;;;;8363226;28;19925;-46
2022/08/01 10:52:19;;;;;;;;;;;27.00;37.90;;;;;;8363624;28;20389;-44
2022/08/01 10:56:23;;;;;;;;;;;27.10;37.90;;;;;;8362666;28;20043;-44
2022/08/01 11:00:23;;;;;;;;;;;27.10;37.90;;;;;;8363350;28;20388;-44
2022/08/01 11:04:33;;;;;;;;;;;27.10;37.90;;;;;;8363092;28;19971;-44
2022/08/01 11:08:37;;;;;;;;;;;27.10;38.40;;;;;;8362443;28;19971;-45
2022/08/01 11:12:38;;;;;;;;;;;27.10;37.70;;;;;;8363099;28;19971;-45
2022/08/01 11:16:40;;;;;;;;;;;27.20;37.80;;;;;;8362975;28;19963;-44
2022/08/01 11:20:54;;;;;;;;;;;27.20;37.60;;;;;;8362337;28;19917;-45
2022/08/01 11:24:56;;;;;;;;;;;27.20;37.80;;;;;;8362690;28;20011;-44
2022/08/01 11:29:14;;;;;;;;;;;27.30;37.80;;;;;;8362153;28;19975;-44
2022/08/01 11:33:16;;;;;;;;;;;27.30;37.60;;;;;;8362905;28;20285;-44
2022/08/01 11:37:24;;;;;;;;;;;27.30;37.50;;;;;;8362490;28;19921;-44
2022/08/01 11:41:25;;;;;;;;;;;27.30;37.60;;;;;;8362416;28;20346;-45
2022/08/01 11:45:46;;;;;;;;;;;27.30;37.40;;;;;;8362442;28;20516;-43
2022/08/01 11:49:49;;;;;;;;;;;27.40;37.40;;;;;;8361921;28;19971;-44
2022/08/01 11:53:50;;;;;;;;;;;27.40;37.50;;;;;;8363673;28;20435;-44
2022/08/01 11:57:58;;;;;;;;;;;27.40;37.40;;;;;;8368620;28;19971;-44
2022/08/01 12:01:58;;;;;;;;;;;27.40;37.30;;;;;;8367854;28;19959;-44
2022/08/01 12:05:59;;;;;;;;;;;27.40;37.30;;;;;;8368009;28;19925;-44
2022/08/01 12:10:04;;;;;;;;;;;27.50;37.20;;;;;;8368323;28;20356;-46
2022/08/01 12:14:06;;;;;;;;;;;27.50;37.10;;;;;;8368699;28;19921;-44
2022/08/01 12:18:07;;;;;;;;;;;27.50;37.00;;;;;;8368025;28;19948;-45
2022/08/01 12:22:14;;;;;;;;;;;27.50;37.20;;;;;;8367549;28;19986;-44
2022/08/01 12:26:14;;;;;;;;;;;27.60;37.10;;;;;;8367029;28;20351;-44
2022/08/01 12:30:16;;;;;;;;;;;27.60;37.00;;;;;;8367473;28;19967;-44
2022/08/01 12:34:29;;;;;;;;;;;27.60;37.10;;;;;;8367403;28;20361;-44
2022/08/01 12:38:32;;;;;;;;;;;27.70;37.10;;;;;;8366792;28;19913;-46
2022/08/01 12:42:36;;;;;;;;;;;27.70;37.00;;;;;;8366994;28;20342;-45
2022/08/01 12:46:36;;;;;;;;;;;27.70;37.50;;;;;;8366875;28;20125;-45
2022/08/01 12:50:38;;;;;;;;;;;27.70;36.80;;;;;;8366343;28;19975;-44
2022/08/01 12:54:57;;;;;;;;;;;27.70;36.80;;;;;;8366808;28;19923;-45
2022/08/01 12:58:59;;;;;;;;;;;27.80;36.70;;;;;;8366666;28;19920;-45
2022/08/01 13:03:02;;;;;;;;;;;27.80;36.60;;;;;;8366602;28;19943;-45
2022/08/01 13:07:03;;;;;;;;;;;27.80;36.10;;;;;;8364305;28;19968;-44
2022/08/01 13:11:13;;;;;;;;;;;27.80;36.80;;;;;;8365729;28;19916;-47
2022/08/01 13:15:17;;;;;;;;;;;27.80;36.00;;;;;;8366268;28;19928;-45
2022/08/01 13:19:17;;;;;;;;;;;27.80;36.10;;;;;;8365749;28;19956;-45
2022/08/01 13:23:18;;;;;;;;;;;27.90;36.40;;;;;;8365540;28;19920;-46
2022/08/01 13:27:20;;;;;;;;;;;27.90;36.20;;;;;;8365525;28;19925;-45
2022/08/01 13:31:31;;;;;;;;;;;27.90;36.40;;;;;;8365702;28;20358;-46
2022/08/01 13:35:32;;;;;;;;;;;27.90;36.20;;;;;;8364916;28;20431;-45
2022/08/01 13:39:41;;;;;;;;;;;28.00;36.20;;;;;;8365249;28;19943;-45
2022/08/01 13:43:42;;;;;;;;;;;27.90;36.40;;;;;;8364985;28;20385;-42
2022/08/01 13:47:42;;;;;;;;;;;28.00;36.20;;;;;;8365168;28;19924;-44
2022/08/01 13:51:43;;;;;;;;;;;28.00;36.40;;;;;;8364721;28;19921;-44
2022/08/01 13:55:44;;;;;;;;;;;28.00;36.50;;;;;;8364263;28;20045;-44
2022/08/01 13:59:44;;;;;;;;;;;28.00;36.30;;;;;;8364935;28;19932;-45
2022/08/01 14:03:46;;;;;;;;;;;28.00;36.20;;;;;;8364724;28;20289;-45
2022/08/01 14:07:46;;;;;;;;;;;28.00;35.70;;;;;;8364060;28;20392;-47
2022/08/01 14:11:47;;;;;;;;;;;28.00;36.20;;;;;;8364176;28;19921;-45
2022/08/01 14:15:47;;;;;;;;;;;28.00;35.90;;;;;;8364123;28;20340;-46
2022/08/01 14:19:48;;;;;;;;;;;28.10;36.30;;;;;;8363604;28;19919;-45
2022/08/01 14:23:48;;;;;;;;;;;28.10;36.00;;;;;;8364055;28;20369;-45
2022/08/01 14:27:49;;;;;;;;;;;28.10;35.60;;;;;;8363706;28;19948;-45
2022/08/01 14:31:49;;;;;;;;;;;28.10;35.20;;;;;;8363636;28;19939;-46
2022/08/01 14:35:50;;;;;;;;;;;28.10;35.80;;;;;;8363685;28;19923;-46
2022/08/01 14:39:52;;;;;;;;;;;28.10;35.80;;;;;;8362987;28;21382;-46
2022/08/01 14:43:53;;;;;;;;;;;28.10;35.50;;;;;;8363295;28;20369;-47
2022/08/01 14:47:54;;;;;;;;;;;28.10;35.30;;;;;;8363633;28;19925;-45
2022/08/01 14:51:54;;;;;;;;;;;28.10;34.90;;;;;;8363313;28;19919;-45
2022/08/01 14:55:55;;;;;;;;;;;28.10;34.80;;;;;;8362838;28;19917;-45
2022/08/01 14:59:55;;;;;;;;;;;28.10;34.60;;;;;;8363588;28;19920;-46
2022/08/01 15:03:56;;;;;;;;;;;28.10;35.10;;;;;;8363487;28;19917;-46
2022/08/01 15:07:57;;;;;;;;;;;28.10;34.80;;;;;;8362421;28;19978;-45
2022/08/01 15:11:58;;;;;;;;;;;28.10;35.50;;;;;;8362907;28;20374;-45
2022/08/01 15:15:59;;;;;;;;;;;28.10;34.50;;;;;;8362909;28;20267;-45
2022/08/01 15:20:00;;;;;;;;;;;28.10;35.00;;;;;;8344497;28;19948;-46
2022/08/01 15:24:01;;;;;;;;;;;28.10;35.10;;;;;;8362978;28;20000;-45
2022/08/01 15:28:01;;;;;;;;;;;28.20;35.30;;;;;;8362780;28;19933;-45
2022/08/01 15:32:03;;;;;;;;;;;28.20;35.00;;;;;;8368896;28;20453;-46
2022/08/01 15:36:03;;;;;;;;;;;28.20;35.70;;;;;;8369504;28;20011;-45
2022/08/01 15:40:04;;;;;;;;;;;28.20;35.80;;;;;;8369303;28;19913;-45
2022/08/01 15:44:04;;;;;;;;;;;28.20;35.50;;;;;;8368797;28;19913;-46
2022/08/01 15:48:05;;;;;;;;;;;28.20;35.60;;;;;;8368708;28;20345;-45
2022/08/01 15:52:06;;;;;;;;;;;28.20;36.00;;;;;;8368846;28;19921;-46
2022/08/01 15:56:07;;;;;;;;;;;28.20;35.80;;;;;;8368241;28;19917;-46
2022/08/01 16:00:08;;;;;;;;;;;28.20;35.70;;;;;;8368672;28;20003;-44
2022/08/01 16:04:08;;;;;;;;;;;28.20;36.00;;;;;;8368393;28;19960;-46
2022/08/01 16:08:09;;;;;;;;;;;28.20;35.20;;;;;;8366137;28;19929;-45
2022/08/01 16:12:10;;;;;;;;;;;28.20;35.70;;;;;;8368291;28;19924;-45
2022/08/01 16:16:11;;;;;;;;;;;28.20;35.80;;;;;;8367962;28;19921;-45
2022/08/01 16:20:11;;;;;;;;;;;28.20;35.50;;;;;;8367655;28;20051;-45
2022/08/01 16:24:12;;;;;;;;;;;28.20;35.80;;;;;;8367676;28;19916;-46
2022/08/01 16:28:12;;;;;;;;;;;28.20;35.80;;;;;;8367454;28;20417;-45
2022/08/01 16:32:13;;;;;;;;;;;28.20;35.90;;;;;;8366967;28;20016;-45
2022/08/01 16:36:14;;;;;;;;;;;28.20;35.80;;;;;;8367509;28;19917;-46
2022/08/01 16:40:14;;;;;;;;;;;28.10;35.60;;;;;;8366287;28;20362;-45
2022/08/01 16:44:15;;;;;;;;;;;28.10;35.80;;;;;;8366491;28;19917;-46
2022/08/01 16:48:17;;;;;;;;;;;28.10;35.70;;;;;;8367135;28;19948;-46
2022/08/01 16:52:17;;;;;;;;;;;28.10;35.90;;;;;;8366928;28;19921;-45
2022/08/01 16:56:18;;;;;;;;;;;28.10;35.90;;;;;;8366172;28;19917;-46
2022/08/01 17:00:19;;;;;;;;;;;28.10;35.80;;;;;;8366826;28;19913;-45
2022/08/01 17:04:19;;;;;;;;;;;28.10;35.90;;;;;;8366456;28;20433;-45
2022/08/01 17:08:20;;;;;;;;;;;28.10;35.90;;;;;;8365775;28;19971;-45
2022/08/01 17:12:20;;;;;;;;;;;28.10;35.90;;;;;;8380276;28;19966;-45
2022/08/01 17:16:21;;;;;;;;;;;28.10;36.00;;;;;;8399226;28;19924;-45
2022/08/01 17:20:22;;;;;;;;;;;28.10;35.90;;;;;;8398822;28;20003;-45
2022/08/01 17:24:22;;;;;;;;;;;28.10;36.00;;;;;;8398898;28;19927;-45
2022/08/01 17:28:23;;;;;;;;;;;28.10;36.10;;;;;;8398715;28;20408;-45
2022/08/01 17:32:23;;;;;;;;;;;28.10;36.20;;;;;;8398173;28;19921;-45
2022/08/01 17:36:23;;;;;;;;;;;28.10;36.30;;;;;;8398463;28;20379;-45
2022/08/01 17:40:24;;;;;;;;;;;28.10;36.30;;;;;;8398408;28;19913;-45
2022/08/01 17:44:26;;;;;;;;;;;28.10;36.30;;;;;;8397541;28;20446;-45
2022/08/01 17:48:27;;;;;;;;;;;28.10;36.30;;;;;;8398369;28;19931;-45
2022/08/01 17:52:27;;;;;;;;;;;28.10;36.30;;;;;;8397512;28;20380;-45
2022/08/01 17:56:28;;;;;;;;;;;28.10;36.30;;;;;;8397361;28;19923;-45
2022/08/01 18:00:28;;;;;;;;;;;28.10;36.20;;;;;;8397872;28;19951;-47
2022/08/01 18:04:29;;;;;;;;;;;28.10;36.20;;;;;;8397662;28;19924;-45
2022/08/01 18:08:29;;;;;;;;;;;28.10;36.20;;;;;;8396836;28;19933;-45
2022/08/01 18:12:29;;;;;;;;;;;28.10;36.20;;;;;;8397064;28;19916;-45
2022/08/01 18:16:30;;;;;;;;;;;28.00;36.00;;;;;;8397223;28;20007;-45
2022/08/01 18:20:30;;;;;;;;;;;28.00;36.10;;;;;;8396948;28;19912;-45
2022/08/01 18:24:31;;;;;;;;;;;28.10;36.30;;;;;;8396885;28;19939;-45
2022/08/01 18:28:37;;;;;;;;;;;28.10;36.20;;;;;;8396836;28;19925;-45
2022/08/01 18:32:37;;;;;;;;;;;28.10;36.30;;;;;;8396242;28;20401;-45
2022/08/01 18:36:38;;;;;;;;;;;28.10;36.20;;;;;;8396636;28;19920;-45
2022/08/01 18:40:39;;;;;;;;;;;28.10;36.20;;;;;;8397046;28;19936;-46
2022/08/01 18:44:39;;;;;;;;;;;28.10;36.20;;;;;;8396222;28;19921;-46
2022/08/01 18:48:40;;;;;;;;;;;28.00;36.20;;;;;;8377257;28;19924;-45
2022/08/01 18:52:41;;;;;;;;;;;28.10;36.30;;;;;;8363452;28;19956;-45
2022/08/01 18:56:42;;;;;;;;;;;28.10;36.30;;;;;;8362700;28;19925;-45
2022/08/01 19:00:43;;;;;;;;;;;28.10;36.30;;;;;;8373800;28;19959;-45
2022/08/01 19:04:43;;;;;;;;;;;28.00;36.20;;;;;;8367456;28;19942;-45
2022/08/01 19:08:44;;;;;;;;;;;28.00;36.30;;;;;;8362019;28;19940;-45
2022/08/01 19:12:45;;;;;;;;;;;28.00;36.20;;;;;;8363144;28;20011;-45
2022/08/01 19:16:45;;;;;;;;;;;28.00;36.30;;;;;;8362793;28;19920;-45
2022/08/01 19:20:46;;;;;;;;;;;28.00;36.40;;;;;;8363179;28;19967;-45
2022/08/01 19:24:46;;;;;;;;;;;28.00;36.50;;;;;;8362937;28;20023;-45
2022/08/01 19:28:49;;;;;;;;;;;28.00;36.50;;;;;;8362712;28;19928;-45
2022/08/01 19:32:50;;;;;;;;;;;28.00;36.60;;;;;;8362526;28;19917;-45
2022/08/01 19:36:53;;;;;;;;;;;28.00;36.60;;;;;;8362803;28;19998;-45
2022/08/01 19:40:53;;;;;;;;;;;28.00;36.70;;;;;;8362463;28;20415;-45
2022/08/01 19:44:54;;;;;;;;;;;28.00;36.70;;;;;;8362291;28;19916;-46
2022/08/01 19:48:54;;;;;;;;;;;28.00;36.80;;;;;;8362429;28;20333;-45
2022/08/01 19:52:56;;;;;;;;;;;28.00;36.80;;;;;;8361859;28;20302;-45
2022/08/01 19:56:59;;;;;;;;;;;28.00;36.80;;;;;;8362347;28;19913;-45
2022/08/01 20:01:00;;;;;;;;;;;28.00;36.80;;;;;;8362480;28;19913;-45
2022/08/01 20:05:01;;;;;;;;;;;28.00;36.90;;;;;;8361842;28;20016;-45
2022/08/01 20:09:02;;;;;;;;;;;28.00;36.90;;;;;;8362143;28;19931;-46
2022/08/01 20:13:03;;;;;;;;;;;28.00;37.00;;;;;;8362042;28;19917;-45
2022/08/01 20:17:04;;;;;;;;;;;28.00;37.00;;;;;;8366040;28;19935;-46
2022/08/01 20:21:05;;;;;;;;;;;27.90;37.00;;;;;;8368347;28;19983;-45
2022/08/01 20:25:07;;;;;;;;;;;27.90;37.00;;;;;;8367866;28;19921;-45
2022/08/01 20:29:07;;;;;;;;;;;28.00;37.10;;;;;;8367220;28;19952;-45
2022/08/01 20:33:10;;;;;;;;;;;28.00;37.10;;;;;;8367640;28;19940;-46
2022/08/01 20:37:10;;;;;;;;;;;28.00;37.20;;;;;;8367246;28;19919;-47
2022/08/01 20:41:11;;;;;;;;;;;27.90;37.20;;;;;;8366988;28;19913;-47
2022/08/01 20:45:12;;;;;;;;;;;28.00;37.30;;;;;;8367265;28;20008;-45
2022/08/01 20:49:13;;;;;;;;;;;27.90;37.20;;;;;;8367108;28;19917;-46
2022/08/01 20:53:13;;;;;;;;;;;27.90;37.30;;;;;;8366443;28;20381;-45
2022/08/01 20:57:19;;;;;;;;;;;27.90;37.30;;;;;;8366725;28;20392;-46
2022/08/01 21:01:23;;;;;;;;;;;27.90;37.30;;;;;;8366753;28;19913;-45
2022/08/01 21:05:26;;;;;;;;;;;27.90;37.40;;;;;;8366026;28;19984;-46
2022/08/01 21:09:29;;;;;;;;;;;27.90;37.40;;;;;;8366663;28;20336;-45
2022/08/01 21:13:36;;;;;;;;;;;27.90;37.50;;;;;;8366214;28;19927;-44
2022/08/01 21:17:41;;;;;;;;;;;27.90;37.50;;;;;;8365673;28;19917;-46
2022/08/01 21:21:43;;;;;;;;;;;27.90;37.50;;;;;;8366416;28;19913;-47
2022/08/01 21:25:45;;;;;;;;;;;27.90;37.60;;;;;;8364997;28;19924;-45
2022/08/01 21:29:47;;;;;;;;;;;27.90;37.60;;;;;;8365368;28;19917;-45
2022/08/01 21:33:50;;;;;;;;;;;27.80;37.50;;;;;;8365437;28;19928;-44
2022/08/01 21:37:51;;;;;;;;;;;27.80;37.60;;;;;;8365072;28;19970;-45
2022/08/01 21:41:51;;;;;;;;;;;27.90;37.70;;;;;;8365457;28;19975;-45
2022/08/01 21:45:52;;;;;;;;;;;27.90;37.70;;;;;;8364988;28;19928;-45
2022/08/01 21:49:52;;;;;;;;;;;27.80;37.60;;;;;;8364631;28;19917;-45
2022/08/01 21:54:01;;;;;;;;;;;27.80;37.70;;;;;;8365234;28;19924;-45
2022/08/01 21:58:18;;;;;;;;;;;27.80;37.70;;;;;;8364864;28;19921;-45
2022/08/01 22:02:21;;;;;;;;;;;27.80;37.70;;;;;;8378936;28;20417;-44
2022/08/01 22:06:22;;;;;;;;;;;27.80;37.70;;;;;;8365129;28;20023;-46
2022/08/01 22:10:23;;;;;;;;;;;27.80;37.70;;;;;;8364559;28;19916;-45
2022/08/01 22:14:25;;;;;;;;;;;27.80;37.80;;;;;;8363928;28;20439;-45
2022/08/01 22:18:26;;;;;;;;;;;27.80;37.80;;;;;;8364247;28;19959;-45
2022/08/01 22:22:27;;;;;;;;;;;27.80;37.80;;;;;;8364384;28;20285;-45
2022/08/01 22:26:28;;;;;;;;;;;27.80;37.80;;;;;;8363481;28;20294;-45
2022/08/01 22:30:29;;;;;;;;;;;27.80;37.80;;;;;;8363893;28;20059;-45
2022/08/01 22:34:29;;;;;;;;;;;27.80;37.80;;;;;;8363849;28;19967;-45
2022/08/01 22:38:29;;;;;;;;;;;27.80;37.90;;;;;;8362287;28;20421;-45
2022/08/01 22:42:32;;;;;;;;;;;27.80;37.90;;;;;;8363786;28;19960;-44
2022/08/01 22:46:36;;;;;;;;;;;27.70;37.90;;;;;;8363588;28;20286;-44
2022/08/01 22:50:38;;;;;;;;;;;27.80;38.00;;;;;;8362860;28;19924;-45
2022/08/01 22:54:39;;;;;;;;;;;27.70;38.00;;;;;;8363446;28;19917;-45
2022/08/01 22:58:40;;;;;;;;;;;27.70;38.00;;;;;;8363291;28;19971;-45
2022/08/01 23:02:51;;;;;;;;;;;27.70;38.00;;;;;;8363048;28;19913;-45
2022/08/01 23:06:53;;;;;;;;;;;27.70;38.00;;;;;;8362902;28;19932;-45
2022/08/01 23:10:54;;;;;;;;;;;27.70;38.00;;;;;;8362503;28;19967;-46
2022/08/01 23:14:55;;;;;;;;;;;27.70;38.00;;;;;;8362965;28;19999;-46
2022/08/01 23:18:59;;;;;;;;;;;27.70;38.60;;;;;;8362909;28;19913;-45
2022/08/01 23:23:00;;;;;;;;;;;27.70;38.10;;;;;;8362605;28;19978;-45
2022/08/01 23:31:21;;;;;;;;;;;27.70;38.10;;;;;;8366627;28;19923;-45